Time,TemperatureF,DewpointF,PressureIn,WindDirection,WindDirectionDegrees,WindSpeedMPH,WindSpeedGustMPH,Humidity,HourlyPrecipIn,Conditions,Clouds,dailyrainin,SoftwareType,DateUTC
2013-01-24 00:01:00,33.4,30.0,30.13,NE,39,0.0,1.0,86,0.00,,,0.00,weatherlink.com 1.10,2013-01-24 08:01:00,
2013-01-24 00:16:00,33.6,30.0,30.15,SW,233,0.0,1.0,85,0.00,,,0.00,weatherlink.com 1.10,2013-01-24 08:16:00,
2013-01-24 00:31:00,34.2,29.0,30.15,WNW,293,5.0,7.0,81,0.00,,,0.00,weatherlink.com 1.10,2013-01-24 08:31:00,
2013-01-24 00:46:00,34.5,28.0,30.15,WNW,297,5.0,12.0,77,0.00,,,0.00,weatherlink.com 1.10,2013-01-24 08:46:00,
2013-01-24 01:01:00,34.1,29.0,30.16,West,281,3.0,7.0,80,0.00,,,0.00,weatherlink.com 1.10,2013-01-24 09:01:00,
2013-01-24 01:16:00,33.4,29.0,30.18,WNW,295,5.0,13.0,83,0.00,,,0.00,weatherlink.com 1.10,2013-01-24 09:16:00,
2013-01-24 01:31:00,32.2,29.0,30.18,WNW,291,5.0,8.0,88,0.00,,,0.00,weatherlink.com 1.10,2013-01-24 09:31:00,
2013-01-24 01:46:00,32.3,30.0,30.18,WNW,296,5.0,6.0,89,0.00,,,0.00,weatherlink.com 1.10,2013-01-24 09:46:00,
2013-01-24 02:01:00,32.5,30.0,30.19,WNW,303,3.0,5.0,89,0.00,,,0.00,weatherlink.com 1.10,2013-01-24 10:01:00,
2013-01-24 02:17:00,32.4,30.0,30.19,NW,307,1.0,3.0,89,0.00,,,0.00,weatherlink.com 1.10,2013-01-24 10:17:00,
2013-01-24 02:32:00,32.5,29.0,30.19,WNW,293,3.0,5.0,88,0.00,,,0.00,weatherlink.com 1.10,2013-01-24 10:32:00,
2013-01-24 02:47:00,32.5,29.0,30.20,WNW,293,3.0,4.0,88,0.00,,,0.00,weatherlink.com 1.10,2013-01-24 10:47:00,
2013-01-24 03:02:00,32.7,30.0,30.20,West,263,1.0,3.0,88,0.00,,,0.00,weatherlink.com 1.10,2013-01-24 11:02:00,
2013-01-24 03:17:00,32.9,30.0,30.20,WNW,283,4.0,5.0,87,0.00,,,0.00,weatherlink.com 1.10,2013-01-24 11:17:00,
2013-01-24 03:32:00,33.0,29.0,30.21,WNW,289,1.0,5.0,86,0.00,,,0.00,weatherlink.com 1.10,2013-01-24 11:32:00,
2013-01-24 03:48:00,32.6,30.0,30.22,NW,312,4.0,5.0,88,0.00,,,0.00,weatherlink.com 1.10,2013-01-24 11:48:00,
2013-01-24 04:02:00,32.6,30.0,30.23,NW,316,2.0,5.0,89,0.00,,,0.00,weatherlink.com 1.10,2013-01-24 12:02:00,
2013-01-24 04:17:00,32.3,30.0,30.22,NW,305,2.0,3.0,90,0.00,,,0.00,weatherlink.com 1.10,2013-01-24 12:17:00,
2013-01-24 04:32:00,31.9,29.0,30.23,NW,311,3.0,5.0,90,0.00,,,0.00,weatherlink.com 1.10,2013-01-24 12:32:00,
2013-01-24 04:47:00,31.1,29.0,30.23,NW,318,1.0,3.0,91,0.00,,,0.00,weatherlink.com 1.10,2013-01-24 12:47:00,
2013-01-24 05:02:00,30.1,28.0,30.23,NW,323,1.0,3.0,92,0.00,,,0.00,weatherlink.com 1.10,2013-01-24 13:02:00,
2013-01-24 05:17:00,28.5,27.0,30.24,NW,323,0.0,1.0,93,0.00,,,0.00,weatherlink.com 1.10,2013-01-24 13:17:00,
2013-01-24 05:32:00,27.5,26.0,30.25,ESE,115,0.0,1.0,94,0.00,,,0.00,weatherlink.com 1.10,2013-01-24 13:32:00,
2013-01-24 05:47:00,27.1,26.0,30.25,ESE,114,0.0,1.0,96,0.00,,,0.00,weatherlink.com 1.10,2013-01-24 13:47:00,
2013-01-24 06:02:00,27.7,27.0,30.25,SSW,204,0.0,2.0,96,0.00,,,0.00,weatherlink.com 1.10,2013-01-24 14:02:00,
2013-01-24 06:17:00,27.1,26.0,30.26,SSW,205,0.0,0.0,96,0.00,,,0.00,weatherlink.com 1.10,2013-01-24 14:17:00,
2013-01-24 06:32:00,26.9,26.0,30.27,NNE,23,2.0,3.0,97,0.00,,,0.00,weatherlink.com 1.10,2013-01-24 14:32:00,
2013-01-24 06:47:00,28.6,28.0,30.27,North,5,0.0,2.0,97,0.00,,,0.00,weatherlink.com 1.10,2013-01-24 14:47:00,
2013-01-24 07:02:00,27.5,26.0,30.27,ESE,115,0.0,2.0,95,0.00,,,0.00,weatherlink.com 1.10,2013-01-24 15:02:00,
2013-01-24 07:17:00,27.3,26.0,30.27,ESE,118,0.0,2.0,95,0.00,,,0.00,weatherlink.com 1.10,2013-01-24 15:17:00,
2013-01-24 07:33:00,27.3,26.0,30.28,ESE,119,0.0,1.0,96,0.00,,,0.00,weatherlink.com 1.10,2013-01-24 15:33:00,
2013-01-24 07:47:00,27.5,27.0,30.28,ESE,118,0.0,1.0,97,0.00,,,0.00,weatherlink.com 1.10,2013-01-24 15:47:00,
2013-01-24 08:02:00,27.8,27.0,30.28,NE,46,0.0,3.0,97,0.00,,,0.00,weatherlink.com 1.10,2013-01-24 16:02:00,
2013-01-24 08:18:00,28.7,28.0,30.28,NE,52,0.0,3.0,97,0.00,,,0.00,weatherlink.com 1.10,2013-01-24 16:18:00,
2013-01-24 08:33:00,25.5,24.0,30.28,NE,36,0.0,2.0,93,0.00,,,0.00,weatherlink.com 1.10,2013-01-24 16:33:00,
2013-01-24 08:47:00,30.5,30.0,30.29,NE,55,2.0,3.0,97,0.00,,,0.00,weatherlink.com 1.10,2013-01-24 16:47:00,
2013-01-24 09:02:00,31.8,30.0,30.30,NE,47,3.0,6.0,93,0.00,,,0.00,weatherlink.com 1.10,2013-01-24 17:02:00,
2013-01-24 09:17:00,32.1,30.0,30.29,East,81,1.0,5.0,91,0.00,,,0.00,weatherlink.com 1.10,2013-01-24 17:17:00,
2013-01-24 09:32:00,32.4,30.0,30.29,East,84,2.0,4.0,91,0.00,,,0.00,weatherlink.com 1.10,2013-01-24 17:32:00,
2013-01-24 09:47:00,33.9,31.0,30.29,NE,41,3.0,3.0,89,0.00,,,0.00,weatherlink.com 1.10,2013-01-24 17:47:00,
2013-01-24 10:02:00,34.3,31.0,30.29,ENE,62,5.0,6.0,89,0.00,,,0.00,weatherlink.com 1.10,2013-01-24 18:02:00,
2013-01-24 10:17:00,34.7,32.0,30.29,ENE,62,5.0,6.0,89,0.00,,,0.00,weatherlink.com 1.10,2013-01-24 18:17:00,
2013-01-24 10:32:00,34.1,32.0,30.30,NE,44,3.0,7.0,90,0.00,,,0.00,weatherlink.com 1.10,2013-01-24 18:32:00,
2013-01-24 10:48:00,34.9,32.0,30.30,NE,47,3.0,5.0,89,0.00,,,0.00,weatherlink.com 1.10,2013-01-24 18:48:00,
2013-01-24 11:03:00,34.9,32.0,30.30,East,79,4.0,6.0,88,0.00,,,0.00,weatherlink.com 1.10,2013-01-24 19:03:00,
2013-01-24 11:18:00,35.3,32.0,30.29,ENE,64,3.0,7.0,89,0.00,,,0.00,weatherlink.com 1.10,2013-01-24 19:18:00,
2013-01-24 11:33:00,35.7,33.0,30.28,NE,51,3.0,7.0,88,0.00,,,0.00,weatherlink.com 1.10,2013-01-24 19:33:00,
2013-01-24 11:48:00,35.0,32.0,30.28,NE,56,6.0,10.0,89,0.00,,,0.00,weatherlink.com 1.10,2013-01-24 19:48:00,
2013-01-24 12:03:00,35.5,32.0,30.28,ENE,60,6.0,9.0,88,0.00,,,0.00,weatherlink.com 1.10,2013-01-24 20:03:00,
2013-01-24 12:18:00,35.7,32.0,30.27,NE,43,6.0,8.0,87,0.00,,,0.00,weatherlink.com 1.10,2013-01-24 20:18:00,
2013-01-24 12:33:00,36.7,33.0,30.27,ENE,67,4.0,5.0,85,0.00,,,0.00,weatherlink.com 1.10,2013-01-24 20:33:00,
2013-01-24 12:48:00,37.1,33.0,30.26,East,88,3.0,6.0,84,0.00,,,0.00,weatherlink.com 1.10,2013-01-24 20:48:00,
2013-01-24 13:03:00,37.7,33.0,30.25,East,100,2.0,5.0,83,0.00,,,0.00,weatherlink.com 1.10,2013-01-24 21:03:00,
2013-01-24 13:18:00,37.5,33.0,30.25,ENE,62,3.0,5.0,84,0.00,,,0.00,weatherlink.com 1.10,2013-01-24 21:18:00,
2013-01-24 13:33:00,37.3,33.0,30.25,NE,52,5.0,8.0,84,0.00,,,0.00,weatherlink.com 1.10,2013-01-24 21:33:00,
2013-01-24 13:48:00,37.7,33.0,30.24,ENE,77,3.0,7.0,83,0.00,,,0.00,weatherlink.com 1.10,2013-01-24 21:48:00,
2013-01-24 14:03:00,38.0,33.0,30.24,NE,37,4.0,7.0,82,0.00,,,0.00,weatherlink.com 1.10,2013-01-24 22:03:00,
2013-01-24 14:18:00,38.5,33.0,30.24,NNE,29,6.0,7.0,82,0.00,,,0.00,weatherlink.com 1.10,2013-01-24 22:18:00,
2013-01-24 14:33:00,37.8,33.0,30.24,NE,45,4.0,7.0,83,0.00,,,0.00,weatherlink.com 1.10,2013-01-24 22:33:00,
2013-01-24 14:48:00,37.7,33.0,30.23,ENE,68,4.0,8.0,82,0.00,,,0.00,weatherlink.com 1.10,2013-01-24 22:48:00,
2013-01-24 15:03:00,37.8,32.0,30.23,ENE,61,3.0,6.0,81,0.00,,,0.00,weatherlink.com 1.10,2013-01-24 23:03:00,
2013-01-24 15:18:00,37.5,33.0,30.23,ENE,68,3.0,8.0,82,0.00,,,0.00,weatherlink.com 1.10,2013-01-24 23:18:00,
2013-01-24 15:33:00,36.9,33.0,30.22,ENE,62,2.0,5.0,85,0.00,,,0.00,weatherlink.com 1.10,2013-01-24 23:33:00,
2013-01-24 15:48:00,36.7,33.0,30.22,NE,35,2.0,5.0,85,0.00,,,0.00,weatherlink.com 1.10,2013-01-24 23:48:00,
2013-01-24 16:03:00,36.3,32.0,30.23,NE,56,2.0,6.0,85,0.00,,,0.00,weatherlink.com 1.10,2013-01-25 00:03:00,
2013-01-24 16:18:00,35.4,31.0,30.23,East,82,2.0,3.0,85,0.00,,,0.00,weatherlink.com 1.10,2013-01-25 00:18:00,
2013-01-24 16:33:00,34.4,31.0,30.23,East,94,3.0,4.0,88,0.00,,,0.00,weatherlink.com 1.10,2013-01-25 00:33:00,
2013-01-24 16:48:00,34.1,31.0,30.23,NE,51,1.0,4.0,89,0.00,,,0.00,weatherlink.com 1.10,2013-01-25 00:48:00,
2013-01-24 17:03:00,33.4,31.0,30.24,ENE,73,2.0,3.0,89,0.00,,,0.00,weatherlink.com 1.10,2013-01-25 01:03:00,
2013-01-24 17:18:00,32.7,31.0,30.24,ENE,57,2.0,3.0,92,0.00,,,0.00,weatherlink.com 1.10,2013-01-25 01:18:00,
2013-01-24 17:33:00,32.6,30.0,30.24,ENE,67,2.0,5.0,91,0.00,,,0.00,weatherlink.com 1.10,2013-01-25 01:33:00,
2013-01-24 17:48:00,32.4,30.0,30.24,ENE,70,1.0,5.0,91,0.00,,,0.00,weatherlink.com 1.10,2013-01-25 01:48:00,
2013-01-24 18:18:00,31.9,30.0,30.24,ENE,68,5.0,6.0,93,0.00,,,0.00,weatherlink.com 1.10,2013-01-25 02:18:00,
2013-01-24 18:33:00,31.6,30.0,30.24,NE,54,3.0,5.0,92,0.00,,,0.00,weatherlink.com 1.10,2013-01-25 02:33:00,
2013-01-24 18:48:00,31.5,30.0,30.24,ENE,75,6.0,6.0,94,0.00,,,0.00,weatherlink.com 1.10,2013-01-25 02:48:00,
2013-01-24 19:03:00,32.9,31.0,30.24,NE,35,1.0,3.0,92,0.00,,,0.00,weatherlink.com 1.10,2013-01-25 03:03:00,
2013-01-24 19:18:00,33.7,31.0,30.23,ENE,73,4.0,6.0,91,0.00,,,0.00,weatherlink.com 1.10,2013-01-25 03:18:00,
2013-01-24 19:33:00,33.9,31.0,30.23,East,79,3.0,5.0,90,0.00,,,0.00,weatherlink.com 1.10,2013-01-25 03:33:00,
2013-01-24 19:48:00,33.8,32.0,30.24,East,79,3.0,5.0,91,0.00,,,0.00,weatherlink.com 1.10,2013-01-25 03:48:00,
2013-01-24 20:04:00,33.8,32.0,30.24,ENE,65,4.0,6.0,91,0.00,,,0.00,weatherlink.com 1.10,2013-01-25 04:04:00,
2013-01-24 20:19:00,33.7,32.0,30.24,ENE,63,4.0,6.0,92,0.00,,,0.00,weatherlink.com 1.10,2013-01-25 04:19:00,
2013-01-24 20:34:00,33.9,32.0,30.24,ENE,71,2.0,5.0,91,0.00,,,0.00,weatherlink.com 1.10,2013-01-25 04:34:00,
2013-01-24 20:49:00,33.8,32.0,30.25,ENE,74,3.0,5.0,91,0.00,,,0.00,weatherlink.com 1.10,2013-01-25 04:49:00,
2013-01-24 21:03:00,33.9,32.0,30.25,ESE,106,2.0,4.0,91,0.00,,,0.00,weatherlink.com 1.10,2013-01-25 05:03:00,
2013-01-24 21:18:00,34.3,32.0,30.26,ESE,108,3.0,5.0,90,0.00,,,0.00,weatherlink.com 1.10,2013-01-25 05:18:00,
2013-01-24 21:34:00,34.1,32.0,30.26,East,98,5.0,6.0,91,0.00,,,0.00,weatherlink.com 1.10,2013-01-25 05:34:00,
2013-01-24 21:49:00,34.1,32.0,30.26,ENE,68,2.0,5.0,91,0.00,,,0.00,weatherlink.com 1.10,2013-01-25 05:49:00,
2013-01-24 22:03:00,34.1,32.0,30.25,East,97,3.0,5.0,91,0.00,,,0.00,weatherlink.com 1.10,2013-01-25 06:03:00,
2013-01-24 22:18:00,34.1,32.0,30.25,NE,40,4.0,4.0,92,0.00,,,0.00,weatherlink.com 1.10,2013-01-25 06:18:00,
2013-01-24 22:34:00,34.5,32.0,30.25,NE,55,7.0,7.0,91,0.00,,,0.00,weatherlink.com 1.10,2013-01-25 06:34:00,
2013-01-24 22:48:00,34.3,32.0,30.25,ENE,64,4.0,6.0,92,0.00,,,0.00,weatherlink.com 1.10,2013-01-25 06:48:00,
2013-01-24 23:04:00,34.6,33.0,30.25,East,89,0.0,3.0,92,0.00,,,0.00,weatherlink.com 1.10,2013-01-25 07:04:00,
2013-01-24 23:18:00,34.3,32.0,30.25,ENE,64,1.0,5.0,92,0.00,,,0.00,weatherlink.com 1.10,2013-01-25 07:18:00,
2013-01-24 23:34:00,34.8,33.0,30.25,NE,44,1.0,5.0,91,0.00,,,0.00,weatherlink.com 1.10,2013-01-25 07:34:00,
2013-01-24 23:49:00,35.0,33.0,30.23,ENE,65,3.0,6.0,91,0.00,,,0.00,weatherlink.com 1.10,2013-01-25 07:49:00,